createdAt,value
2023-04-26T00:04:11.679Z,0.88
2023-04-26T00:09:15.778Z,0.90
2023-04-26T00:14:18.470Z,0.86
2023-04-26T00:19:21.400Z,0.90
2023-04-26T00:24:26.981Z,0.72
2023-04-26T00:29:29.532Z,0.57
2023-04-26T00:34:35.957Z,0.48
2023-04-26T00:39:39.894Z,0.48
2023-04-26T00:44:42.505Z,0.41
2023-04-26T00:49:45.451Z,0.41
2023-04-26T00:54:51.414Z,0.29
2023-04-26T00:59:53.997Z,0.20
2023-04-26T01:04:56.759Z,0.19
2023-04-26T01:10:01.102Z,0.24
2023-04-26T01:15:04.924Z,0.21
2023-04-26T01:20:09.947Z,0.38
2023-04-26T01:25:14.096Z,0.42
2023-04-26T01:30:16.902Z,0.38
2023-04-26T01:35:19.754Z,0.29
2023-04-26T01:40:23.687Z,0.45
2023-04-26T01:45:26.257Z,0.79
2023-04-26T01:50:29.014Z,0.90
2023-04-26T01:55:32.998Z,1.08
2023-04-26T02:00:35.592Z,1.19
2023-04-26T02:05:38.193Z,1.30
2023-04-26T02:10:42.065Z,1.23
2023-04-26T02:15:48.061Z,1.01
2023-04-26T02:20:50.715Z,0.79
2023-04-26T02:25:55.027Z,0.75
2023-04-26T02:30:58.571Z,0.77
2023-04-26T02:36:03.312Z,0.74
2023-04-26T02:41:07.258Z,0.86
2023-04-26T02:46:09.852Z,1.04
2023-04-26T02:51:12.456Z,1.27
2023-04-26T02:56:16.452Z,1.45
2023-04-26T03:01:19.067Z,1.47
2023-04-26T03:06:22.612Z,1.43
2023-04-26T03:11:27.590Z,1.14
2023-04-26T03:16:30.270Z,0.83
2023-04-26T03:21:32.920Z,0.48
2023-04-26T03:26:36.787Z,0.23
2023-04-26T03:31:39.641Z,0.12
2023-04-26T03:36:42.370Z,-0.11
2023-04-26T03:41:46.347Z,-0.16
2023-04-26T03:46:48.942Z,-0.34
2023-04-26T03:51:51.750Z,-0.34
2023-04-26T03:56:55.667Z,-0.31
2023-04-26T04:01:58.353Z,-0.32
2023-04-26T04:07:02.091Z,-0.46
2023-04-26T04:12:06.322Z,-0.59
2023-04-26T04:17:09.885Z,-0.51
2023-04-26T04:22:12.616Z,-0.48
2023-04-26T04:27:16.575Z,-0.51
2023-04-26T04:32:19.136Z,-0.33
2023-04-26T04:37:22.895Z,-0.11
2023-04-26T04:42:28.450Z,0.06
2023-04-26T04:47:31.080Z,0.16
2023-04-26T04:52:34.206Z,0.17
2023-04-26T04:57:38.649Z,0.09
2023-04-26T05:02:42.584Z,0.13
2023-04-26T05:07:45.371Z,0.35
2023-04-26T05:12:49.351Z,0.59
2023-04-26T05:17:52.278Z,0.86
2023-04-26T05:22:54.851Z,1.15
2023-04-26T05:27:58.787Z,1.42
2023-04-26T05:33:01.494Z,1.60
2023-04-26T05:38:04.902Z,1.84
2023-04-26T05:43:09.641Z,1.99
2023-04-26T05:48:12.365Z,2.19
2023-04-26T05:53:15.019Z,2.40
2023-04-26T05:58:19.714Z,2.63
2023-04-26T06:03:22.509Z,2.96
2023-04-26T06:08:25.307Z,3.36
2023-04-26T06:13:29.298Z,3.94
2023-04-26T06:18:31.937Z,3.93
2023-04-26T06:23:34.548Z,4.23
2023-04-26T06:28:39.532Z,4.24
2023-04-26T06:33:43.698Z,4.54
2023-04-26T06:38:46.296Z,5.71
2023-04-26T06:43:50.600Z,7.75
2023-04-26T06:48:55.114Z,9.47
2023-04-26T06:53:59.004Z,10.65
2023-04-26T06:59:05.119Z,10.39
2023-04-26T07:04:10.084Z,11.20
2023-04-26T07:09:13.236Z,11.93
2023-04-26T07:14:17.201Z,12.59
2023-04-26T07:19:20.072Z,12.82
2023-04-26T07:24:22.629Z,13.02
2023-04-26T07:29:26.632Z,13.29
2023-04-26T07:34:29.320Z,13.32
2023-04-26T07:39:32.094Z,13.17
2023-04-26T07:44:36.073Z,13.20
2023-04-26T07:49:38.720Z,12.97
2023-04-26T07:54:41.320Z,12.74
2023-04-26T07:59:45.261Z,12.72
2023-04-26T08:04:52.758Z,13.79
2023-04-26T08:09:56.601Z,13.76
2023-04-26T08:15:01.808Z,13.49
2023-04-26T08:20:06.030Z,11.91
2023-04-26T08:25:09.741Z,11.04
2023-04-26T08:30:14.255Z,10.68
2023-04-26T08:35:16.936Z,10.01
2023-04-26T08:40:24.449Z,9.65
2023-04-26T08:45:28.366Z,8.89
2023-04-26T08:50:33.547Z,8.62
2023-04-26T08:55:37.482Z,7.97
2023-04-26T09:00:44.529Z,7.47
2023-04-26T09:05:47.519Z,7.13
2023-04-26T09:10:50.096Z,7.00
2023-04-26T09:15:54.085Z,7.00
2023-04-26T09:21:04.755Z,7.17
2023-04-26T09:26:17.051Z,7.72
2023-04-26T09:31:39.473Z,8.41
2023-04-26T09:36:52.888Z,9.51
2023-04-26T09:41:55.648Z,10.89
2023-04-26T09:47:04.513Z,11.92
2023-04-26T09:52:07.489Z,12.32
2023-04-26T09:57:10.604Z,12.12
2023-04-26T10:02:17.950Z,11.92
2023-04-26T10:07:22.211Z,11.02
2023-04-26T10:12:25.053Z,10.85
2023-04-26T10:17:29.080Z,10.12
2023-04-26T10:22:35.032Z,10.07
2023-04-26T10:27:53.766Z,10.26
2023-04-26T10:33:19.091Z,10.42
2023-04-26T10:38:21.805Z,10.25
2023-04-26T10:43:31.969Z,10.07
2023-04-26T10:48:35.982Z,10.10
2023-04-26T10:53:59.694Z,10.24
2023-04-26T10:59:28.436Z,10.31
2023-04-26T11:04:54.683Z,9.93
2023-04-26T11:09:57.443Z,9.70
2023-04-26T11:15:01.229Z,9.71
2023-04-26T11:20:11.086Z,9.59
2023-04-26T11:25:14.240Z,9.85
2023-04-26T11:30:19.609Z,10.70
2023-04-26T11:35:24.844Z,12.46
2023-04-26T11:40:29.562Z,14.26
2023-04-26T11:45:33.969Z,12.79
2023-04-26T11:50:38.722Z,11.65
2023-04-26T11:55:41.915Z,10.54
2023-04-26T12:00:57.852Z,9.87
2023-04-26T12:06:02.347Z,9.64
2023-04-26T12:11:05.327Z,9.24
2023-04-26T12:16:22.199Z,9.40
2023-04-26T12:21:30.838Z,9.24
2023-04-26T12:26:45.773Z,9.07
2023-04-26T12:31:48.670Z,9.02
2023-04-26T12:36:52.732Z,8.80
2023-04-26T12:41:55.413Z,8.77
2023-04-26T12:46:58.411Z,8.26
2023-04-26T12:52:02.417Z,7.98
2023-04-26T12:57:05.112Z,7.90
2023-04-26T13:02:10.123Z,7.99
2023-04-26T13:07:14.182Z,8.19
2023-04-26T13:12:17.090Z,8.27
2023-04-26T13:17:19.721Z,8.47
2023-04-26T13:22:23.723Z,8.68
2023-04-26T13:27:28.399Z,9.17
2023-04-26T13:32:32.550Z,9.58
2023-04-26T13:37:36.525Z,9.81
2023-04-26T13:42:39.136Z,9.95
2023-04-26T13:47:41.925Z,10.24
2023-04-26T13:52:45.929Z,10.21
2023-04-26T13:57:48.455Z,10.06
2023-04-26T14:02:52.760Z,10.23
2023-04-26T14:07:58.716Z,10.08
2023-04-26T14:13:01.330Z,9.69
2023-04-26T14:18:03.931Z,9.41
2023-04-26T14:23:08.882Z,9.66
2023-04-26T14:28:12.529Z,9.54
2023-04-26T14:33:15.115Z,9.54
2023-04-26T14:38:19.071Z,9.63
2023-04-26T14:43:21.714Z,9.54
2023-04-26T14:48:24.338Z,9.63
2023-04-26T14:53:28.329Z,10.30
2023-04-26T14:58:31.061Z,10.80
2023-04-26T15:03:34.092Z,10.65
2023-04-26T15:08:38.424Z,10.54
2023-04-26T15:13:40.960Z,10.33
2023-04-26T15:18:44.217Z,10.10
2023-04-26T15:23:48.257Z,9.84
2023-04-26T15:28:51.168Z,9.53
2023-04-26T15:33:56.371Z,9.63
2023-04-26T15:39:00.315Z,9.53
2023-04-26T15:44:02.872Z,9.31
2023-04-26T15:49:05.494Z,9.19
2023-04-26T15:54:09.778Z,9.12
2023-04-26T15:59:12.497Z,9.06
2023-04-26T16:04:15.278Z,8.97
2023-04-26T16:09:25.238Z,8.66
2023-04-26T16:14:29.869Z,8.48
2023-04-26T16:19:32.610Z,8.46
2023-04-26T16:24:36.555Z,8.35
2023-04-26T16:29:39.201Z,8.37
2023-04-26T16:34:41.923Z,8.33
2023-04-26T16:39:45.877Z,8.31
2023-04-26T16:44:48.471Z,8.28
2023-04-26T16:49:51.088Z,8.41
2023-04-26T16:54:55.038Z,8.57
2023-04-26T16:59:57.645Z,8.64
2023-04-26T17:05:01.820Z,8.54
2023-04-26T17:10:07.450Z,8.53
2023-04-26T17:15:11.005Z,8.42
2023-04-26T17:20:13.996Z,8.32
2023-04-26T17:25:18.229Z,8.26
2023-04-26T17:30:21.291Z,8.23
2023-04-26T17:35:23.866Z,8.24
2023-04-26T17:40:27.813Z,8.09
2023-04-26T17:45:30.464Z,7.94
2023-04-26T17:50:33.015Z,7.66
2023-04-26T17:55:37.501Z,7.47
2023-04-26T18:00:40.114Z,7.37
2023-04-26T18:05:42.688Z,7.33
2023-04-26T18:10:48.422Z,7.21
2023-04-26T18:15:51.840Z,7.02
2023-04-26T18:20:54.440Z,6.81
2023-04-26T18:25:58.357Z,6.57
2023-04-26T18:31:01.871Z,6.32
2023-04-26T18:36:05.642Z,6.09
2023-04-26T18:41:09.552Z,5.89
2023-04-26T18:46:12.164Z,5.68
2023-04-26T18:51:14.779Z,5.40
2023-04-26T18:56:18.748Z,5.06
2023-04-26T19:01:21.444Z,4.73
2023-04-26T19:06:24.063Z,4.48
2023-04-26T19:11:28.064Z,4.26
2023-04-26T19:16:30.902Z,4.11
2023-04-26T19:21:33.780Z,4.02
2023-04-26T19:26:38.056Z,4.06
2023-04-26T19:31:40.669Z,4.04
2023-04-26T19:36:43.495Z,4.01
2023-04-26T19:41:47.432Z,3.99
2023-04-26T19:46:49.996Z,3.99
2023-04-26T19:51:53.566Z,3.97
2023-04-26T19:56:57.314Z,3.76
2023-04-26T20:01:59.906Z,3.49
2023-04-26T20:07:04.946Z,3.26
2023-04-26T20:12:08.984Z,3.05
2023-04-26T20:17:11.647Z,2.88
2023-04-26T20:22:14.223Z,2.79
2023-04-26T20:27:18.111Z,2.69
2023-04-26T20:32:20.915Z,2.55
2023-04-26T20:37:23.650Z,2.49
2023-04-26T20:42:27.747Z,2.41
2023-04-26T20:47:30.478Z,2.30
2023-04-26T20:52:33.146Z,2.20
2023-04-26T20:57:38.445Z,2.11
2023-04-26T21:02:41.694Z,1.97
2023-04-26T21:07:44.402Z,1.80
2023-04-26T21:12:48.651Z,1.71
2023-04-26T21:17:51.350Z,1.63
2023-04-26T21:22:53.993Z,1.57
2023-04-26T21:27:58.859Z,1.45
2023-04-26T21:33:01.466Z,1.33
2023-04-26T21:38:04.391Z,1.15
2023-04-26T21:43:08.288Z,1.04
2023-04-26T21:48:10.873Z,0.96
2023-04-26T21:53:13.437Z,0.91
2023-04-26T21:58:17.386Z,0.90
2023-04-26T22:03:20.146Z,0.83
2023-04-26T22:08:22.783Z,0.70
2023-04-26T22:13:26.775Z,0.57
2023-04-26T22:18:29.431Z,0.47
2023-04-26T22:23:32.095Z,0.46
2023-04-26T22:28:36.222Z,0.30
2023-04-26T22:33:38.848Z,0.20
2023-04-26T22:38:41.493Z,0.12
2023-04-26T22:43:45.413Z,0.08
2023-04-26T22:48:48.009Z,0.04
2023-04-26T22:53:50.592Z,-0.06
2023-04-26T22:58:54.536Z,-0.14
2023-04-26T23:03:57.117Z,-0.11
2023-04-26T23:08:59.909Z,-0.13
2023-04-26T23:14:04.945Z,-0.23
2023-04-26T23:19:09.698Z,-0.38
2023-04-26T23:24:13.426Z,-0.45
2023-04-26T23:29:17.411Z,-0.51
2023-04-26T23:34:20.031Z,-0.51
2023-04-26T23:39:22.643Z,-0.43
2023-04-26T23:44:26.684Z,-0.48
2023-04-26T23:49:29.387Z,-0.53
2023-04-26T23:54:32.169Z,-0.63
2023-04-26T23:59:36.111Z,-0.77
